createdAt,value
2023-05-07T00:02:00.762Z,8.20
2023-05-07T00:04:29.249Z,8.30
2023-05-07T00:06:56.733Z,8.20
2023-05-07T00:09:23.535Z,8.10
2023-05-07T00:11:50.421Z,8.00
2023-05-07T00:14:17.192Z,8.00
2023-05-07T00:16:44.083Z,8.00
2023-05-07T00:19:10.988Z,8.00
2023-05-07T00:21:37.859Z,7.80
2023-05-07T00:24:05.100Z,7.70
2023-05-07T00:26:31.874Z,7.70
2023-05-07T00:28:58.642Z,7.60
2023-05-07T00:31:25.511Z,7.60
2023-05-07T00:33:52.329Z,7.70
2023-05-07T00:36:19.079Z,7.70
2023-05-07T00:38:45.935Z,7.60
2023-05-07T00:41:12.734Z,7.60
2023-05-07T00:43:39.608Z,7.60
2023-05-07T00:46:06.584Z,7.70
2023-05-07T00:48:33.685Z,7.60
2023-05-07T00:51:00.595Z,7.60
2023-05-07T00:53:27.658Z,7.60
2023-05-07T00:55:54.584Z,7.70
2023-05-07T00:58:22.163Z,7.80
2023-05-07T01:00:49.050Z,7.70
2023-05-07T01:03:16.017Z,7.50
2023-05-07T01:05:45.398Z,7.50
2023-05-07T01:08:12.864Z,7.50
2023-05-07T01:10:43.952Z,7.50
2023-05-07T01:13:11.592Z,7.40
2023-05-07T01:15:39.114Z,7.50
2023-05-07T01:18:08.024Z,7.40
2023-05-07T01:20:35.170Z,7.40
2023-05-07T01:23:02.353Z,7.30
2023-05-07T01:25:29.603Z,7.40
2023-05-07T01:27:56.399Z,7.40
2023-05-07T01:30:23.962Z,7.50
2023-05-07T01:33:03.713Z,7.50
2023-05-07T01:35:37.096Z,7.50
2023-05-07T01:38:05.562Z,7.60
2023-05-07T01:40:32.581Z,7.40
2023-05-07T01:42:59.666Z,7.40
2023-05-07T01:45:26.968Z,7.30
2023-05-07T01:47:55.285Z,7.30
2023-05-07T01:50:22.468Z,7.30
2023-05-07T01:52:51.971Z,7.30
2023-05-07T01:55:19.123Z,7.30
2023-05-07T01:57:45.935Z,7.20
2023-05-07T02:00:13.368Z,7.30
2023-05-07T02:02:40.606Z,7.30
2023-05-07T02:05:07.878Z,7.30
2023-05-07T02:07:34.688Z,7.30
2023-05-07T02:10:01.472Z,7.30
2023-05-07T02:12:28.304Z,7.40
2023-05-07T02:14:55.118Z,7.40
2023-05-07T02:17:21.944Z,7.30
2023-05-07T02:19:48.829Z,7.40
2023-05-07T02:22:16.481Z,7.40
2023-05-07T02:24:43.338Z,7.30
2023-05-07T02:27:10.226Z,7.30
2023-05-07T02:29:36.988Z,7.30
2023-05-07T02:32:03.976Z,7.40
2023-05-07T02:34:30.794Z,7.40
2023-05-07T02:36:57.748Z,7.40
2023-05-07T02:39:24.550Z,7.40
2023-05-07T02:41:51.343Z,7.40
2023-05-07T02:44:18.192Z,7.50
2023-05-07T02:46:45.014Z,7.60
2023-05-07T02:49:11.802Z,7.60
2023-05-07T02:51:38.690Z,7.70
2023-05-07T02:54:05.824Z,7.70
2023-05-07T02:56:32.638Z,7.70
2023-05-07T02:58:59.562Z,7.70
2023-05-07T03:01:26.440Z,7.60
2023-05-07T03:03:53.272Z,7.60
2023-05-07T03:06:20.155Z,7.60
2023-05-07T03:08:46.945Z,7.60
2023-05-07T03:11:13.977Z,7.60
2023-05-07T03:13:40.781Z,7.70
2023-05-07T03:16:07.762Z,7.70
2023-05-07T03:18:34.702Z,7.70
2023-05-07T03:21:01.651Z,7.50
2023-05-07T03:23:28.463Z,7.50
2023-05-07T03:25:55.347Z,7.60
2023-05-07T03:28:22.196Z,7.60
2023-05-07T03:30:49.076Z,7.50
2023-05-07T03:33:16.508Z,7.50
2023-05-07T03:35:43.301Z,7.60
2023-05-07T03:38:10.227Z,7.60
2023-05-07T03:40:37.041Z,7.60
2023-05-07T03:43:03.948Z,7.50
2023-05-07T03:45:30.799Z,7.50
2023-05-07T03:47:57.621Z,7.60
2023-05-07T03:50:24.440Z,7.70
2023-05-07T03:52:51.255Z,7.80
2023-05-07T03:55:18.038Z,7.60
2023-05-07T03:57:44.851Z,7.60
2023-05-07T04:00:12.584Z,7.60
2023-05-07T04:02:39.894Z,7.70
2023-05-07T04:05:07.112Z,7.70
2023-05-07T04:07:33.938Z,7.70
2023-05-07T04:10:00.858Z,7.80
2023-05-07T04:12:27.637Z,7.90
2023-05-07T04:14:54.433Z,7.80
2023-05-07T04:17:21.241Z,7.80
2023-05-07T04:19:48.022Z,7.90
2023-05-07T04:22:14.848Z,7.90
2023-05-07T04:24:41.670Z,7.80
2023-05-07T04:27:08.511Z,7.80
2023-05-07T04:29:35.389Z,7.90
2023-05-07T04:32:02.597Z,7.90
2023-05-07T04:34:29.478Z,7.90
2023-05-07T04:36:59.890Z,8.00
2023-05-07T04:39:26.712Z,7.90
2023-05-07T04:41:53.494Z,7.90
2023-05-07T04:44:20.291Z,7.80
2023-05-07T04:46:47.071Z,7.80
2023-05-07T04:49:13.913Z,7.80
2023-05-07T04:51:44.987Z,7.70
2023-05-07T04:54:11.919Z,7.70
2023-05-07T04:56:38.685Z,7.60
2023-05-07T04:59:05.612Z,7.50
2023-05-07T05:01:32.772Z,7.40
2023-05-07T05:04:01.248Z,7.40
2023-05-07T05:06:28.292Z,7.60
2023-05-07T05:08:55.097Z,7.60
2023-05-07T05:11:21.965Z,7.60
2023-05-07T05:13:50.487Z,7.70
2023-05-07T05:16:17.496Z,7.80
2023-05-07T05:18:44.463Z,7.90
2023-05-07T05:21:11.310Z,7.90
2023-05-07T05:23:38.156Z,7.90
2023-05-07T05:26:04.980Z,7.90
2023-05-07T05:28:31.825Z,7.70
2023-05-07T05:30:58.597Z,7.70
2023-05-07T05:33:25.404Z,8.00
2023-05-07T05:35:52.143Z,8.30
2023-05-07T05:38:18.985Z,8.30
2023-05-07T05:40:45.792Z,8.30
2023-05-07T05:43:12.633Z,8.30
2023-05-07T05:45:39.464Z,8.40
2023-05-07T05:48:06.641Z,8.40
2023-05-07T05:50:33.423Z,8.30
2023-05-07T05:53:00.478Z,8.40
2023-05-07T05:55:27.569Z,8.40
2023-05-07T05:57:54.373Z,8.50
2023-05-07T06:00:23.565Z,8.60
2023-05-07T06:02:50.596Z,8.60
2023-05-07T06:05:17.648Z,8.60
2023-05-07T06:07:44.487Z,8.50
2023-05-07T06:10:11.602Z,8.50
2023-05-07T06:12:38.837Z,8.60
2023-05-07T06:15:06.191Z,8.70
2023-05-07T06:17:33.066Z,8.70
2023-05-07T06:19:59.888Z,8.80
2023-05-07T06:22:26.680Z,8.90
2023-05-07T06:24:53.441Z,8.70
2023-05-07T06:27:20.229Z,8.50
2023-05-07T06:29:49.059Z,8.50
2023-05-07T06:32:16.041Z,8.70
2023-05-07T06:34:42.866Z,8.80
2023-05-07T06:37:09.875Z,8.80
2023-05-07T06:39:36.799Z,8.80
2023-05-07T06:42:05.537Z,8.80
2023-05-07T06:44:32.790Z,8.80
2023-05-07T06:46:59.913Z,8.90
2023-05-07T06:49:26.699Z,9.10
2023-05-07T06:51:53.635Z,9.10
2023-05-07T06:54:21.906Z,8.90
2023-05-07T06:56:48.672Z,8.90
2023-05-07T06:59:15.912Z,8.70
2023-05-07T07:01:42.745Z,8.80
2023-05-07T07:04:09.551Z,8.80
2023-05-07T07:06:36.502Z,8.90
2023-05-07T07:09:03.582Z,8.90
2023-05-07T07:11:30.373Z,8.90
2023-05-07T07:13:57.590Z,9.00
2023-05-07T07:16:24.453Z,9.00
2023-05-07T07:18:51.732Z,9.10
2023-05-07T07:21:18.566Z,8.70
2023-05-07T07:23:45.432Z,8.70
2023-05-07T07:26:12.224Z,8.70
2023-05-07T07:28:46.500Z,8.80
2023-05-07T07:31:14.166Z,9.00
2023-05-07T07:33:41.209Z,9.00
2023-05-07T07:36:08.568Z,9.20
2023-05-07T07:38:36.033Z,9.30
2023-05-07T07:41:03.002Z,9.50
2023-05-07T07:43:29.903Z,9.60
2023-05-07T07:45:56.983Z,9.80
2023-05-07T07:48:23.751Z,9.80
2023-05-07T07:50:52.255Z,9.90
2023-05-07T07:53:19.461Z,9.70
2023-05-07T07:55:46.297Z,9.80
2023-05-07T07:58:13.196Z,9.70
2023-05-07T08:00:40.012Z,9.80
2023-05-07T08:03:08.475Z,9.90
2023-05-07T08:05:35.595Z,9.60
2023-05-07T08:08:02.435Z,9.70
2023-05-07T08:10:29.316Z,9.70
2023-05-07T08:12:56.285Z,9.50
2023-05-07T08:15:23.089Z,9.50
2023-05-07T08:17:49.952Z,9.60
2023-05-07T08:20:16.839Z,9.70
2023-05-07T08:22:43.690Z,9.90
2023-05-07T08:25:10.942Z,10.10
2023-05-07T08:27:37.766Z,10.20
2023-05-07T08:30:05.892Z,9.90
2023-05-07T08:32:32.749Z,9.70
2023-05-07T08:34:59.494Z,9.50
2023-05-07T08:37:26.428Z,9.60
2023-05-07T08:39:53.260Z,9.70
2023-05-07T08:42:22.348Z,9.70
2023-05-07T08:44:54.087Z,9.60
2023-05-07T08:47:23.749Z,9.70
2023-05-07T08:49:51.597Z,9.70
2023-05-07T08:52:20.695Z,9.70
2023-05-07T08:54:48.392Z,9.70
2023-05-07T08:57:15.314Z,9.70
2023-05-07T08:59:43.088Z,9.60
2023-05-07T09:02:12.385Z,9.70
2023-05-07T09:04:39.325Z,9.80
2023-05-07T09:07:06.621Z,9.80
2023-05-07T09:09:34.798Z,9.90
2023-05-07T09:12:01.642Z,9.80
2023-05-07T09:14:28.707Z,9.80
2023-05-07T09:16:55.803Z,9.80
2023-05-07T09:19:26.929Z,9.70
2023-05-07T09:22:04.317Z,9.80
2023-05-07T09:24:35.936Z,10.10
2023-05-07T09:27:03.456Z,10.10
2023-05-07T09:29:31.288Z,10.00
2023-05-07T09:31:58.095Z,10.00
2023-05-07T09:34:24.904Z,9.80
2023-05-07T09:36:51.821Z,9.60
2023-05-07T09:39:18.748Z,9.50
2023-05-07T09:41:46.623Z,9.80
2023-05-07T09:44:16.968Z,9.70
2023-05-07T09:46:45.548Z,9.70
2023-05-07T09:49:26.006Z,9.70
2023-05-07T09:51:53.879Z,9.80
2023-05-07T09:54:20.844Z,10.00
2023-05-07T09:56:49.867Z,9.90
2023-05-07T09:59:17.710Z,10.00
2023-05-07T10:01:46.155Z,10.10
2023-05-07T10:04:13.734Z,10.20
2023-05-07T10:06:42.651Z,10.00
2023-05-07T10:09:10.817Z,10.00
2023-05-07T10:11:38.130Z,10.00
2023-05-07T10:14:06.925Z,10.20
2023-05-07T10:16:37.740Z,10.50
2023-05-07T10:19:06.093Z,10.60
2023-05-07T10:21:40.501Z,10.40
2023-05-07T10:24:15.528Z,10.30
2023-05-07T10:26:46.516Z,10.30
2023-05-07T10:29:33.999Z,10.60
2023-05-07T10:32:03.554Z,10.60
2023-05-07T10:34:39.915Z,10.60
2023-05-07T10:37:07.467Z,10.90
2023-05-07T10:39:35.505Z,11.00
2023-05-07T10:42:13.114Z,10.90
2023-05-07T10:44:40.372Z,11.00
2023-05-07T10:47:16.507Z,10.80
2023-05-07T10:49:43.235Z,10.60
2023-05-07T10:52:19.949Z,10.60
2023-05-07T10:54:47.367Z,10.60
2023-05-07T10:57:32.969Z,10.70
2023-05-07T10:59:59.823Z,10.70
2023-05-07T11:03:01.857Z,10.80
2023-05-07T11:05:33.449Z,10.60
2023-05-07T11:08:03.366Z,10.70
2023-05-07T11:10:48.887Z,10.70
2023-05-07T11:13:16.547Z,10.70
2023-05-07T11:15:48.480Z,10.80
2023-05-07T11:18:17.120Z,10.80
2023-05-07T11:20:48.833Z,10.70
2023-05-07T11:23:34.538Z,10.80
2023-05-07T11:26:01.771Z,11.00
2023-05-07T11:28:32.657Z,11.00
2023-05-07T11:30:59.605Z,10.80
2023-05-07T11:33:27.038Z,10.90
2023-05-07T11:35:54.997Z,10.80
2023-05-07T11:38:21.919Z,10.80
2023-05-07T11:40:52.364Z,10.80
2023-05-07T11:43:19.327Z,10.80
2023-05-07T11:45:47.472Z,10.90
2023-05-07T11:48:15.474Z,10.90
2023-05-07T11:51:00.660Z,10.90
2023-05-07T11:53:29.344Z,10.80
2023-05-07T11:55:59.219Z,10.80
2023-05-07T11:58:29.266Z,10.70
2023-05-07T12:00:56.138Z,10.90
2023-05-07T12:03:23.047Z,10.90
2023-05-07T12:05:49.971Z,11.10
2023-05-07T12:08:20.855Z,11.20
2023-05-07T12:10:50.798Z,11.40
2023-05-07T12:13:22.410Z,11.40
2023-05-07T12:15:53.375Z,11.50
2023-05-07T12:18:21.756Z,11.60
2023-05-07T12:20:48.902Z,11.80
2023-05-07T12:23:16.284Z,11.90
2023-05-07T12:25:47.964Z,12.00
2023-05-07T12:28:18.805Z,12.10
2023-05-07T12:30:47.534Z,12.00
2023-05-07T12:33:19.106Z,12.10
2023-05-07T12:35:46.092Z,12.00
2023-05-07T12:38:14.999Z,12.00
2023-05-07T12:40:52.082Z,12.00
2023-05-07T12:43:25.821Z,12.10
2023-05-07T12:45:57.426Z,12.00
2023-05-07T12:48:24.798Z,11.90
2023-05-07T12:50:53.018Z,12.10
2023-05-07T12:53:22.930Z,12.10
2023-05-07T12:55:51.236Z,12.20
2023-05-07T12:58:24.408Z,12.20
2023-05-07T13:00:52.368Z,12.10
2023-05-07T13:03:24.964Z,12.00
2023-05-07T13:05:52.954Z,12.00
2023-05-07T13:08:30.960Z,12.00
2023-05-07T13:11:04.662Z,12.00
2023-05-07T13:13:36.532Z,12.10
2023-05-07T13:16:04.882Z,11.80
2023-05-07T13:18:32.759Z,11.50
2023-05-07T13:21:01.170Z,11.50
2023-05-07T13:23:28.789Z,11.60
2023-05-07T13:25:56.877Z,11.40
2023-05-07T13:28:27.290Z,11.50
2023-05-07T13:30:55.813Z,11.40
2023-05-07T13:33:22.836Z,11.40
2023-05-07T13:35:49.710Z,11.40
2023-05-07T13:38:17.327Z,11.30
2023-05-07T13:40:44.216Z,11.40
2023-05-07T13:43:11.707Z,11.30
2023-05-07T13:45:38.681Z,11.20
2023-05-07T13:48:05.905Z,11.20
2023-05-07T13:50:32.792Z,11.20
2023-05-07T13:52:59.699Z,11.30
2023-05-07T13:55:26.782Z,11.30
2023-05-07T13:57:58.269Z,11.30
2023-05-07T14:00:26.402Z,11.40
2023-05-07T14:02:53.791Z,11.40
2023-05-07T14:05:20.989Z,11.40
2023-05-07T14:07:48.736Z,11.60
2023-05-07T14:10:15.907Z,11.50
2023-05-07T14:12:42.818Z,11.50
2023-05-07T14:15:09.987Z,11.60
2023-05-07T14:17:36.918Z,11.60
2023-05-07T14:20:04.237Z,11.70
2023-05-07T14:22:31.016Z,11.60
2023-05-07T14:25:14.641Z,11.60
2023-05-07T14:27:41.581Z,11.60
2023-05-07T14:30:09.036Z,11.60
2023-05-07T14:32:36.012Z,11.70
2023-05-07T14:35:02.897Z,11.60
2023-05-07T14:37:29.756Z,11.40
2023-05-07T14:39:56.628Z,11.40
2023-05-07T14:42:23.438Z,11.40
2023-05-07T14:44:50.413Z,11.60
2023-05-07T14:47:18.302Z,11.60
2023-05-07T14:49:46.636Z,11.60
2023-05-07T14:52:13.545Z,11.50
2023-05-07T14:54:40.750Z,11.60
2023-05-07T14:57:09.525Z,11.50
2023-05-07T14:59:36.491Z,11.50
2023-05-07T15:02:05.515Z,11.50
2023-05-07T15:04:33.790Z,11.60
2023-05-07T15:07:01.016Z,11.60
2023-05-07T15:09:27.893Z,11.60
2023-05-07T15:11:54.643Z,11.70
2023-05-07T15:14:22.887Z,11.60
2023-05-07T15:16:50.217Z,11.60
2023-05-07T15:19:18.057Z,11.70
2023-05-07T15:21:45.087Z,11.60
2023-05-07T15:24:11.977Z,11.50
2023-05-07T15:26:38.736Z,11.50
2023-05-07T15:29:11.114Z,11.50
2023-05-07T15:31:39.875Z,11.60
2023-05-07T15:34:06.999Z,11.70
2023-05-07T15:36:33.935Z,11.60
2023-05-07T15:39:01.136Z,11.60
2023-05-07T15:41:27.972Z,11.70
2023-05-07T15:43:54.910Z,11.80
2023-05-07T15:46:25.377Z,11.70
2023-05-07T15:48:53.515Z,11.60
2023-05-07T15:51:21.074Z,11.60
2023-05-07T15:53:48.194Z,11.70
2023-05-07T15:56:15.256Z,11.60
2023-05-07T15:58:42.109Z,11.60
2023-05-07T16:01:09.105Z,11.60
2023-05-07T16:03:36.255Z,11.70
2023-05-07T16:06:03.385Z,11.70
2023-05-07T16:08:30.175Z,11.70
2023-05-07T16:10:57.040Z,11.60
2023-05-07T16:13:24.990Z,11.60
2023-05-07T16:15:59.908Z,11.50
2023-05-07T16:18:27.069Z,11.60
2023-05-07T16:20:54.612Z,11.50
2023-05-07T16:23:21.714Z,11.60
2023-05-07T16:25:49.737Z,11.50
2023-05-07T16:28:16.819Z,11.60
2023-05-07T16:30:44.072Z,11.50
2023-05-07T16:33:11.014Z,11.40
2023-05-07T16:35:37.829Z,11.40
2023-05-07T16:38:09.989Z,11.40
2023-05-07T16:40:40.422Z,11.30
2023-05-07T16:43:07.522Z,11.20
2023-05-07T16:45:34.360Z,11.10
2023-05-07T16:48:02.977Z,11.10
2023-05-07T16:50:30.098Z,11.10
2023-05-07T16:52:57.003Z,11.00
2023-05-07T16:55:24.013Z,11.00
2023-05-07T16:57:50.981Z,11.00
2023-05-07T17:00:18.167Z,10.90
2023-05-07T17:02:45.881Z,10.80
2023-05-07T17:05:12.986Z,10.80
2023-05-07T17:07:40.341Z,10.80
2023-05-07T17:10:07.673Z,10.80
2023-05-07T17:12:35.916Z,10.80
2023-05-07T17:15:03.514Z,10.80
2023-05-07T17:17:30.403Z,10.70
2023-05-07T17:19:57.405Z,10.70
2023-05-07T17:22:25.761Z,10.70
2023-05-07T17:24:53.017Z,10.70
2023-05-07T17:27:20.716Z,10.60
2023-05-07T17:29:47.506Z,10.60
2023-05-07T17:32:14.510Z,10.60
2023-05-07T17:34:41.445Z,10.50
2023-05-07T17:37:08.321Z,10.60
2023-05-07T17:39:35.219Z,10.60
2023-05-07T17:42:02.066Z,10.50
2023-05-07T17:44:29.217Z,10.50
2023-05-07T17:46:56.008Z,10.40
2023-05-07T17:49:22.785Z,10.40
2023-05-07T17:51:54.601Z,10.50
2023-05-07T17:54:24.322Z,10.50
2023-05-07T17:56:51.246Z,10.50
2023-05-07T17:59:18.183Z,10.50
2023-05-07T18:01:45.350Z,10.40
2023-05-07T18:04:12.220Z,10.40
2023-05-07T18:06:39.859Z,10.40
2023-05-07T18:09:06.676Z,10.30
2023-05-07T18:11:33.749Z,10.40
2023-05-07T18:14:01.045Z,10.40
2023-05-07T18:16:27.935Z,10.30
2023-05-07T18:18:55.579Z,10.40
2023-05-07T18:21:22.505Z,10.30
2023-05-07T18:23:49.442Z,10.30
2023-05-07T18:26:16.559Z,10.30
2023-05-07T18:28:43.767Z,10.30
2023-05-07T18:31:10.866Z,10.30
2023-05-07T18:33:37.961Z,10.30
2023-05-07T18:36:05.036Z,10.30
2023-05-07T18:38:32.113Z,10.30
2023-05-07T18:41:04.213Z,10.30
2023-05-07T18:43:31.168Z,10.30
2023-05-07T18:45:58.435Z,10.30
2023-05-07T18:48:25.296Z,10.30
2023-05-07T18:50:52.577Z,10.20
2023-05-07T18:53:19.620Z,10.20
2023-05-07T18:55:50.804Z,10.20
2023-05-07T18:58:19.880Z,10.20
2023-05-07T19:00:50.311Z,10.20
2023-05-07T19:03:17.561Z,10.20
2023-05-07T19:05:45.619Z,10.20
2023-05-07T19:08:12.967Z,10.10
2023-05-07T19:10:39.754Z,10.20
2023-05-07T19:13:06.863Z,10.10
2023-05-07T19:15:33.933Z,10.10
2023-05-07T19:18:00.762Z,10.10
2023-05-07T19:20:28.185Z,10.10
2023-05-07T19:22:55.180Z,10.20
2023-05-07T19:25:22.130Z,10.10
2023-05-07T19:27:50.787Z,10.10
2023-05-07T19:30:17.934Z,10.00
2023-05-07T19:32:44.875Z,10.00
2023-05-07T19:35:11.976Z,10.10
2023-05-07T19:37:39.556Z,10.10
2023-05-07T19:40:07.149Z,10.10
2023-05-07T19:42:34.071Z,10.10
2023-05-07T19:45:01.111Z,10.00
2023-05-07T19:47:28.027Z,10.00
2023-05-07T19:49:54.840Z,10.00
2023-05-07T19:52:21.710Z,10.10
2023-05-07T19:54:48.542Z,10.10
2023-05-07T19:57:17.527Z,10.10
2023-05-07T19:59:46.284Z,10.00
2023-05-07T20:02:13.139Z,10.00
2023-05-07T20:04:40.041Z,9.90
2023-05-07T20:07:06.934Z,9.90
2023-05-07T20:09:34.107Z,9.90
2023-05-07T20:12:01.015Z,9.90
2023-05-07T20:14:28.048Z,9.90
2023-05-07T20:16:54.832Z,10.00
2023-05-07T20:19:21.791Z,9.90
2023-05-07T20:21:48.818Z,9.90
2023-05-07T20:24:16.796Z,9.90
2023-05-07T20:26:43.593Z,9.90
2023-05-07T20:29:10.425Z,9.90
2023-05-07T20:31:37.334Z,9.90
2023-05-07T20:34:04.141Z,10.00
2023-05-07T20:36:31.052Z,9.90
2023-05-07T20:38:57.872Z,9.90
2023-05-07T20:41:25.500Z,9.90
2023-05-07T20:43:52.486Z,9.80
2023-05-07T20:46:22.610Z,9.90
2023-05-07T20:48:50.135Z,9.90
2023-05-07T20:51:17.063Z,9.90
2023-05-07T20:53:45.496Z,10.00
2023-05-07T20:56:13.668Z,9.90
2023-05-07T20:58:40.584Z,9.90
2023-05-07T21:01:07.481Z,9.90
2023-05-07T21:03:34.414Z,9.90
2023-05-07T21:06:01.510Z,9.90
2023-05-07T21:08:28.318Z,9.80
2023-05-07T21:10:55.867Z,9.80
2023-05-07T21:13:23.387Z,9.80
2023-05-07T21:15:50.675Z,9.80
2023-05-07T21:18:19.155Z,9.80
2023-05-07T21:20:46.047Z,9.90
2023-05-07T21:23:12.918Z,9.80
2023-05-07T21:25:41.369Z,9.80
2023-05-07T21:28:11.677Z,9.70
2023-05-07T21:30:38.594Z,9.60
2023-05-07T21:33:07.779Z,9.60
2023-05-07T21:35:36.713Z,9.60
2023-05-07T21:38:03.926Z,9.50
2023-05-07T21:40:31.045Z,9.60
2023-05-07T21:43:00.144Z,9.60
2023-05-07T21:45:27.064Z,9.60
2023-05-07T21:47:53.902Z,9.60
2023-05-07T21:50:21.420Z,9.50
2023-05-07T21:52:48.950Z,9.50
2023-05-07T21:55:17.593Z,9.60
2023-05-07T21:57:50.689Z,9.50
2023-05-07T22:00:17.782Z,9.60
2023-05-07T22:02:44.727Z,9.60
2023-05-07T22:05:11.572Z,9.60
2023-05-07T22:07:38.455Z,9.50
2023-05-07T22:10:05.825Z,9.50
2023-05-07T22:12:32.649Z,9.50
2023-05-07T22:14:59.473Z,9.60
2023-05-07T22:17:26.334Z,9.50
2023-05-07T22:19:53.155Z,9.60
2023-05-07T22:22:19.973Z,9.50
2023-05-07T22:24:46.898Z,9.50
2023-05-07T22:27:13.724Z,9.50
2023-05-07T22:29:40.810Z,9.40
2023-05-07T22:32:08.779Z,9.60
2023-05-07T22:34:36.613Z,9.50
2023-05-07T22:37:03.415Z,9.50
2023-05-07T22:39:34.441Z,9.50
2023-05-07T22:42:02.398Z,9.50
2023-05-07T22:44:29.375Z,9.50
2023-05-07T22:46:56.193Z,9.50
2023-05-07T22:49:23.003Z,9.50
2023-05-07T22:51:49.808Z,9.50
2023-05-07T22:54:16.622Z,9.40
2023-05-07T22:56:43.388Z,9.50
2023-05-07T22:59:10.338Z,9.40
2023-05-07T23:01:37.271Z,9.50
2023-05-07T23:04:04.148Z,9.40
2023-05-07T23:06:31.229Z,9.40
2023-05-07T23:08:58.954Z,9.40
2023-05-07T23:11:26.403Z,9.40
2023-05-07T23:13:53.231Z,9.40
2023-05-07T23:16:20.106Z,9.30
2023-05-07T23:18:47.044Z,9.30
2023-05-07T23:21:13.795Z,9.30
2023-05-07T23:23:40.641Z,9.30
2023-05-07T23:26:07.495Z,9.30
2023-05-07T23:28:34.406Z,9.40
2023-05-07T23:31:01.254Z,9.40
2023-05-07T23:33:28.078Z,9.40
2023-05-07T23:36:01.764Z,9.30
2023-05-07T23:38:28.674Z,9.30
2023-05-07T23:40:55.650Z,9.30
2023-05-07T23:43:22.953Z,9.40
2023-05-07T23:45:49.993Z,9.40
2023-05-07T23:48:16.796Z,9.40
2023-05-07T23:50:43.780Z,9.20
2023-05-07T23:53:10.901Z,9.20
2023-05-07T23:55:38.341Z,9.20
2023-05-07T23:58:05.253Z,9.20
